This is the latest recevied weather packets stored in our database for station/object EA3FHP. If no packets are shown the sender has not sent any weather packets the latest 10 day(s).
| Time | Temp. | Humidity | Pressure | Rain* | Wind** | Luminosity | Snow |
|---|---|---|---|---|---|---|---|
| 1777147803 | 13.89° C | 82% | 1019.9 hPa | 0 mm | - | - | - |
| 1777147204 | 13.89° C | 82% | 1019.8 hPa | 0 mm | - | - | - |
| 1777146603 | 14.44° C | 81% | 1019.6 hPa | 0 mm | - | - | - |
| 1777146003 | 14.44° C | 80% | 1019.6 hPa | 0 mm | - | - | - |
| 1777145403 | 15° C | 79% | 1019.4 hPa | 0 mm | - | - | - |
| 1777144804 | 15.56° C | 78% | 1019.2 hPa | 0 mm | - | - | - |
| 1777144203 | 16.11° C | 75% | 1019.1 hPa | 0 mm | - | - | - |
| 1777143604 | 16.67° C | 75% | 1019 hPa | 0 mm | - | - | - |
| 1777143003 | 16.67° C | 72% | 1018.8 hPa | 0 mm | - | - | - |
| 1777142403 | 17.22° C | 73% | 1018.8 hPa | 0 mm | - | - | - |
| 1777141804 | 17.22° C | 73% | 1018.7 hPa | 0 mm | - | - | - |
| 1777141204 | 17.22° C | 72% | 1018.4 hPa | 0 mm | - | - | - |
| 1777140603 | 18.33° C | 73% | 1018.5 hPa | 0 mm | - | - | - |
| 1777140004 | 18.33° C | 70% | 1018.4 hPa | 0 mm | - | - | - |
| 1777139404 | 18.89° C | 71% | 1018.5 hPa | 0 mm | - | - | - |
| 1777138804 | 18.89° C | 66% | 1018.3 hPa | 0 mm | - | - | - |
| 1777138204 | 18.89° C | 66% | 1018.4 hPa | 0 mm | - | - | - |
| 1777137604 | 19.44° C | 66% | 1018.5 hPa | 0 mm | - | - | - |
| 1777137003 | 19.44° C | 65% | 1018.4 hPa | 0 mm | - | - | - |
| 1777136404 | 19.44° C | 67% | 1018.5 hPa | 0 mm | - | - | - |
| 1777135804 | 19.44° C | 64% | 1018.3 hPa | 0 mm | - | - | - |
| 1777135204 | 20° C | 64% | 1018.4 hPa | 0 mm | - | - | - |
| 1777134604 | 20° C | 64% | 1018.2 hPa | 0 mm | - | - | - |
| 1777134004 | 20.56° C | 63% | 1018 hPa | 0 mm | - | - | - |
| 1777133403 | 21.11° C | 62% | 1017.9 hPa | 0 mm | - | - | - |
* Rain latest hour (hover to see other rain measurements)
** Current wind speed in m/s (hover to see current wind gust speed)